createdAt,value
2023-03-06T00:00:37.351Z,86.73
2023-03-06T00:01:28.518Z,86.83
2023-03-06T00:02:19.879Z,86.98
2023-03-06T00:03:10.597Z,87.04
2023-03-06T00:04:01.753Z,87.15
2023-03-06T00:04:52.644Z,87.25
2023-03-06T00:05:43.748Z,87.15
2023-03-06T00:06:34.518Z,87.04
2023-03-06T00:07:25.604Z,87.04
2023-03-06T00:08:16.571Z,87.19
2023-03-06T00:09:07.432Z,87.25
2023-03-06T00:09:58.336Z,87.40
2023-03-06T00:10:49.315Z,87.46
2023-03-06T00:11:40.288Z,87.46
2023-03-06T00:12:31.474Z,87.46
2023-03-06T00:13:22.355Z,87.35
2023-03-06T00:14:13.610Z,87.35
2023-03-06T00:15:05.760Z,87.46
2023-03-06T00:15:55.606Z,87.46
2023-03-06T00:16:46.328Z,87.46
2023-03-06T00:17:37.393Z,87.46
2023-03-06T00:18:28.649Z,87.46
2023-03-06T00:19:19.505Z,87.35
2023-03-06T00:20:10.265Z,87.25
2023-03-06T00:21:01.247Z,87.15
2023-03-06T00:21:52.129Z,87.04
2023-03-06T00:22:43.134Z,86.94
2023-03-06T00:23:34.194Z,86.94
2023-03-06T00:24:25.004Z,86.94
2023-03-06T00:25:15.810Z,86.83
2023-03-06T00:26:06.666Z,86.83
2023-03-06T00:26:57.762Z,86.83
2023-03-06T00:27:48.557Z,86.83
2023-03-06T00:28:39.513Z,86.73
2023-03-06T00:29:30.608Z,86.73
2023-03-06T00:30:21.680Z,86.73
2023-03-06T00:31:12.401Z,86.83
2023-03-06T00:32:03.468Z,86.83
2023-03-06T00:32:54.454Z,86.83
2023-03-06T00:33:45.376Z,86.83
2023-03-06T00:34:36.493Z,86.94
2023-03-06T00:35:27.323Z,87.04
2023-03-06T00:36:18.351Z,87.04
2023-03-06T00:37:09.332Z,87.04
2023-03-06T00:38:00.441Z,87.04
2023-03-06T00:38:51.509Z,87.04
2023-03-06T00:39:42.607Z,87.04
2023-03-06T00:40:33.490Z,87.04
2023-03-06T00:41:24.361Z,87.15
2023-03-06T00:42:15.465Z,87.15
2023-03-06T00:43:06.717Z,87.25
2023-03-06T00:43:57.928Z,87.25
2023-03-06T00:44:48.649Z,87.25
2023-03-06T00:45:39.735Z,87.25
2023-03-06T00:46:30.936Z,87.15
2023-03-06T00:47:21.927Z,87.15
2023-03-06T00:48:12.966Z,87.15
2023-03-06T00:49:04.192Z,87.15
2023-03-06T00:49:55.155Z,87.15
2023-03-06T00:50:46.157Z,87.15
2023-03-06T00:51:36.953Z,87.15
2023-03-06T00:52:27.769Z,87.15
2023-03-06T00:53:18.902Z,87.15
2023-03-06T00:54:09.621Z,87.04
2023-03-06T00:55:00.747Z,87.04
2023-03-06T00:55:51.746Z,87.04
2023-03-06T00:56:42.837Z,87.04
2023-03-06T00:57:33.965Z,87.15
2023-03-06T00:58:24.615Z,87.15
2023-03-06T00:59:15.399Z,87.15
2023-03-06T01:00:06.495Z,87.15
2023-03-06T01:00:57.602Z,87.15
2023-03-06T01:01:48.480Z,87.15
2023-03-06T01:02:39.549Z,87.15
2023-03-06T01:03:30.584Z,87.04
2023-03-06T01:04:21.818Z,87.04
2023-03-06T01:05:13.146Z,86.94
2023-03-06T01:06:04.263Z,86.94
2023-03-06T01:06:54.939Z,86.94
2023-03-06T01:07:45.829Z,86.83
2023-03-06T01:08:36.572Z,86.73
2023-03-06T01:09:27.399Z,86.63
2023-03-06T01:10:18.329Z,86.63
2023-03-06T01:11:09.223Z,86.63
2023-03-06T01:12:00.123Z,86.63
2023-03-06T01:12:50.881Z,86.63
2023-03-06T01:13:42.189Z,86.63
2023-03-06T01:14:32.967Z,86.63
2023-03-06T01:15:23.637Z,86.73
2023-03-06T01:16:14.465Z,86.73
2023-03-06T01:17:05.137Z,86.63
2023-03-06T01:17:55.829Z,86.63
2023-03-06T01:18:46.618Z,86.73
2023-03-06T01:19:37.329Z,86.73
2023-03-06T01:20:28.532Z,86.73
2023-03-06T01:21:19.597Z,86.73
2023-03-06T01:22:10.854Z,86.73
2023-03-06T01:23:02.005Z,86.73
2023-03-06T01:23:53.081Z,86.73
2023-03-06T01:24:43.762Z,86.73
2023-03-06T01:25:34.719Z,86.73
2023-03-06T01:26:25.533Z,86.63
2023-03-06T01:27:16.207Z,86.63
2023-03-06T01:28:06.937Z,86.63
2023-03-06T01:28:58.188Z,86.63
2023-03-06T01:29:48.880Z,86.63
2023-03-06T01:30:39.984Z,86.73
2023-03-06T01:31:31.241Z,86.73
2023-03-06T01:32:22.016Z,86.73
2023-03-06T01:33:12.896Z,86.77
2023-03-06T01:34:03.527Z,86.77
2023-03-06T01:34:54.238Z,86.88
2023-03-06T01:35:45.171Z,86.88
2023-03-06T01:36:36.133Z,86.88
2023-03-06T01:37:27.441Z,86.88
2023-03-06T01:38:18.736Z,86.88
2023-03-06T01:39:09.819Z,86.98
2023-03-06T01:40:01.056Z,86.98
2023-03-06T01:40:52.303Z,87.08
2023-03-06T01:41:43.521Z,87.08
2023-03-06T01:42:34.764Z,87.19
2023-03-06T01:43:26.075Z,87.29
2023-03-06T01:44:17.170Z,87.29
2023-03-06T01:45:08.374Z,87.29
2023-03-06T01:45:59.556Z,87.29
2023-03-06T01:46:50.689Z,87.40
2023-03-06T01:47:41.855Z,87.40
2023-03-06T01:48:32.871Z,87.40
2023-03-06T01:49:24.074Z,87.40
2023-03-06T01:50:14.681Z,87.50
2023-03-06T01:51:05.607Z,87.60
2023-03-06T01:51:56.440Z,87.60
2023-03-06T01:52:47.367Z,87.60
2023-03-06T01:53:38.023Z,87.60
2023-03-06T01:54:29.103Z,87.71
2023-03-06T01:55:20.193Z,87.71
2023-03-06T01:56:11.372Z,87.81
2023-03-06T01:57:02.624Z,87.96
2023-03-06T01:57:53.462Z,88.06
2023-03-06T01:58:44.116Z,88.06
2023-03-06T01:59:35.161Z,88.17
2023-03-06T02:00:25.994Z,88.17
2023-03-06T02:01:16.808Z,88.17
2023-03-06T02:02:08.078Z,88.27
2023-03-06T02:02:58.644Z,88.37
2023-03-06T02:03:49.846Z,88.37
2023-03-06T02:04:41.043Z,88.48
2023-03-06T02:05:32.190Z,88.58
2023-03-06T02:06:23.249Z,88.58
2023-03-06T02:07:14.118Z,88.58
2023-03-06T02:08:05.394Z,88.68
2023-03-06T02:08:56.368Z,88.68
2023-03-06T02:09:47.155Z,88.79
2023-03-06T02:10:38.113Z,88.79
2023-03-06T02:11:29.074Z,88.79
2023-03-06T02:12:19.694Z,88.79
2023-03-06T02:13:10.395Z,88.79
2023-03-06T02:14:01.421Z,88.89
2023-03-06T02:14:52.303Z,88.89
2023-03-06T02:15:43.484Z,88.89
2023-03-06T02:16:34.331Z,88.89
2023-03-06T02:17:25.162Z,88.89
2023-03-06T02:18:16.128Z,88.96
2023-03-06T02:19:07.056Z,88.96
2023-03-06T02:19:58.045Z,88.96
2023-03-06T02:20:49.113Z,88.96
2023-03-06T02:21:40.132Z,88.96
2023-03-06T02:22:31.050Z,88.96
2023-03-06T02:23:22.303Z,88.96
2023-03-06T02:24:13.254Z,88.85
2023-03-06T02:25:04.483Z,88.85
2023-03-06T02:25:55.758Z,88.75
2023-03-06T02:26:46.634Z,88.85
2023-03-06T02:27:37.461Z,88.89
2023-03-06T02:28:28.385Z,88.79
2023-03-06T02:29:19.205Z,88.89
2023-03-06T02:30:10.217Z,89.10
2023-03-06T02:31:01.227Z,89.10
2023-03-06T02:31:52.329Z,89.20
2023-03-06T02:32:43.309Z,89.20
2023-03-06T02:33:34.449Z,89.20
2023-03-06T02:34:25.569Z,89.20
2023-03-06T02:35:16.213Z,89.20
2023-03-06T02:36:06.910Z,89.31
2023-03-06T02:36:58.001Z,89.20
2023-03-06T02:37:49.215Z,89.31
2023-03-06T02:38:39.906Z,89.41
2023-03-06T02:39:31.059Z,89.52
2023-03-06T02:40:22.218Z,89.52
2023-03-06T02:41:13.465Z,89.52
2023-03-06T02:42:04.519Z,89.52
2023-03-06T02:42:55.145Z,89.52
2023-03-06T02:43:46.389Z,89.41
2023-03-06T02:44:37.123Z,89.41
2023-03-06T02:45:27.873Z,89.52
2023-03-06T02:46:19.067Z,89.62
2023-03-06T02:47:09.835Z,89.62
2023-03-06T02:48:00.523Z,89.73
2023-03-06T02:48:51.242Z,89.83
2023-03-06T02:49:42.532Z,89.83
2023-03-06T02:50:33.726Z,89.83
2023-03-06T02:51:24.751Z,89.83
2023-03-06T02:52:15.867Z,89.94
2023-03-06T02:53:06.815Z,89.94
2023-03-06T02:53:57.818Z,90.04
2023-03-06T02:54:48.990Z,90.04
2023-03-06T02:55:39.939Z,90.14
2023-03-06T02:56:30.608Z,90.14
2023-03-06T02:57:21.590Z,90.25
2023-03-06T02:58:12.546Z,90.14
2023-03-06T02:59:03.396Z,90.10
2023-03-06T02:59:54.470Z,90.10
2023-03-06T03:00:45.229Z,90.00
2023-03-06T03:01:36.028Z,90.00
2023-03-06T03:02:27.155Z,90.00
2023-03-06T03:03:18.386Z,90.00
2023-03-06T03:04:09.110Z,89.89
2023-03-06T03:04:59.797Z,89.79
2023-03-06T03:05:51.045Z,89.69
2023-03-06T03:06:41.853Z,89.69
2023-03-06T03:07:32.917Z,89.58
2023-03-06T03:08:23.875Z,89.58
2023-03-06T03:09:14.728Z,89.58
2023-03-06T03:10:05.748Z,89.58
2023-03-06T03:10:56.696Z,89.58
2023-03-06T03:11:47.579Z,89.58
2023-03-06T03:12:38.625Z,89.58
2023-03-06T03:13:29.860Z,89.48
2023-03-06T03:14:21.021Z,89.48
2023-03-06T03:15:11.894Z,89.37
2023-03-06T03:16:03.066Z,89.27
2023-03-06T03:16:54.247Z,89.06
2023-03-06T03:17:45.071Z,89.06
2023-03-06T03:18:36.066Z,89.06
2023-03-06T03:19:26.848Z,89.06
2023-03-06T03:20:17.829Z,89.17
2023-03-06T03:21:08.805Z,89.17
2023-03-06T03:21:59.438Z,89.17
2023-03-06T03:22:50.689Z,89.17
2023-03-06T03:23:41.788Z,89.06
2023-03-06T03:24:33.108Z,88.96
2023-03-06T03:25:24.283Z,88.75
2023-03-06T03:26:15.539Z,88.64
2023-03-06T03:27:06.306Z,88.64
2023-03-06T03:27:57.097Z,88.64
2023-03-06T03:28:48.111Z,88.64
2023-03-06T03:29:38.922Z,88.75
2023-03-06T03:30:29.906Z,88.64
2023-03-06T03:31:21.018Z,88.64
2023-03-06T03:32:11.856Z,88.64
2023-03-06T03:33:02.691Z,88.64
2023-03-06T03:33:53.790Z,88.64
2023-03-06T03:34:44.706Z,88.64
2023-03-06T03:35:35.731Z,88.64
2023-03-06T03:36:26.577Z,88.64
2023-03-06T03:37:17.479Z,88.64
2023-03-06T03:38:08.580Z,88.64
2023-03-06T03:38:59.327Z,88.43
2023-03-06T03:39:50.443Z,88.33
2023-03-06T03:40:41.054Z,88.37
2023-03-06T03:41:32.021Z,88.17
2023-03-06T03:42:22.711Z,88.17
2023-03-06T03:43:13.695Z,88.06
2023-03-06T03:44:04.439Z,88.06
2023-03-06T03:44:55.589Z,88.06
2023-03-06T03:45:46.789Z,88.06
2023-03-06T03:46:37.503Z,88.06
2023-03-06T03:47:28.625Z,88.06
2023-03-06T03:48:19.692Z,88.06
2023-03-06T03:49:10.717Z,88.10
2023-03-06T03:50:01.759Z,87.99
2023-03-06T03:50:52.862Z,88.10
2023-03-06T03:51:43.953Z,88.10
2023-03-06T03:52:34.966Z,88.31
2023-03-06T03:53:25.775Z,88.42
2023-03-06T03:54:16.664Z,88.42
2023-03-06T03:55:07.589Z,88.42
2023-03-06T03:55:58.347Z,88.42
2023-03-06T03:56:49.326Z,88.42
2023-03-06T03:57:40.032Z,88.52
2023-03-06T03:58:31.260Z,88.52
2023-03-06T03:59:21.926Z,88.52
2023-03-06T04:00:12.778Z,88.42
2023-03-06T04:01:03.486Z,88.45
2023-03-06T04:01:54.186Z,88.45
2023-03-06T04:02:44.822Z,88.56
2023-03-06T04:03:35.694Z,88.66
2023-03-06T04:04:26.867Z,88.66
2023-03-06T04:05:17.778Z,88.76
2023-03-06T04:06:08.629Z,88.76
2023-03-06T04:06:59.545Z,88.76
2023-03-06T04:07:50.362Z,88.76
2023-03-06T04:08:41.244Z,88.87
2023-03-06T04:09:32.239Z,88.98
2023-03-06T04:10:23.043Z,88.98
2023-03-06T04:11:13.768Z,89.08
2023-03-06T04:12:05.022Z,89.08
2023-03-06T04:12:56.056Z,89.18
2023-03-06T04:13:46.876Z,89.18
2023-03-06T04:14:37.941Z,89.18
2023-03-06T04:15:28.974Z,89.18
2023-03-06T04:16:19.775Z,89.18
2023-03-06T04:17:10.741Z,89.18
2023-03-06T04:18:01.545Z,89.18
2023-03-06T04:18:52.716Z,89.18
2023-03-06T04:19:43.577Z,89.29
2023-03-06T04:20:34.880Z,89.29
2023-03-06T04:21:26.076Z,89.29
2023-03-06T04:22:16.830Z,89.29
2023-03-06T04:23:08.104Z,89.29
2023-03-06T04:23:59.255Z,89.29
2023-03-06T04:24:50.217Z,89.29
2023-03-06T04:25:41.383Z,89.18
2023-03-06T04:26:32.055Z,89.18
2023-03-06T04:27:22.811Z,89.18
2023-03-06T04:28:13.631Z,89.18
2023-03-06T04:29:04.826Z,89.18
2023-03-06T04:29:55.556Z,89.18
2023-03-06T04:30:46.322Z,89.18
2023-03-06T04:31:37.099Z,89.18
2023-03-06T04:32:27.848Z,89.18
2023-03-06T04:33:18.498Z,89.29
2023-03-06T04:34:09.289Z,89.29
2023-03-06T04:35:00.138Z,89.18
2023-03-06T04:35:50.946Z,89.18
2023-03-06T04:36:41.737Z,89.18
2023-03-06T04:37:32.510Z,89.18
2023-03-06T04:38:23.296Z,89.18
2023-03-06T04:39:14.052Z,89.18
2023-03-06T04:40:04.796Z,89.18
2023-03-06T04:40:55.709Z,89.18
2023-03-06T04:41:46.618Z,89.18
2023-03-06T04:42:37.612Z,89.18
2023-03-06T04:43:28.396Z,89.18
2023-03-06T04:44:19.157Z,89.29
2023-03-06T04:45:09.924Z,89.29
2023-03-06T04:46:00.815Z,89.18
2023-03-06T04:46:51.543Z,89.08
2023-03-06T04:47:42.315Z,88.98
2023-03-06T04:48:33.084Z,88.87
2023-03-06T04:49:23.843Z,88.98
2023-03-06T04:50:14.614Z,88.87
2023-03-06T04:51:05.396Z,88.87
2023-03-06T04:51:56.167Z,88.87
2023-03-06T04:52:46.936Z,88.87
2023-03-06T04:53:37.689Z,88.87
2023-03-06T04:54:28.493Z,88.87
2023-03-06T04:55:19.242Z,88.87
2023-03-06T04:56:10.020Z,89.01
2023-03-06T04:57:00.790Z,89.01
2023-03-06T04:57:51.559Z,89.12
2023-03-06T04:58:42.305Z,89.12
2023-03-06T04:59:33.087Z,89.22
2023-03-06T05:00:23.867Z,89.32
2023-03-06T05:01:14.670Z,89.32
2023-03-06T05:02:05.466Z,89.43
2023-03-06T05:02:56.184Z,89.43
2023-03-06T05:03:46.960Z,89.54
2023-03-06T05:04:37.727Z,89.54
2023-03-06T05:05:28.509Z,89.54
2023-03-06T05:06:19.257Z,89.54
2023-03-06T05:07:10.019Z,89.64
2023-03-06T05:08:00.785Z,89.64
2023-03-06T05:08:51.557Z,89.64
2023-03-06T05:09:42.361Z,89.64
2023-03-06T05:10:33.106Z,89.64
2023-03-06T05:11:23.873Z,89.64
2023-03-06T05:12:14.647Z,89.64
2023-03-06T05:13:05.428Z,89.64
2023-03-06T05:13:56.168Z,89.64
2023-03-06T05:14:48.083Z,89.75
2023-03-06T05:15:38.239Z,89.75
2023-03-06T05:16:29.141Z,89.75
2023-03-06T05:17:19.833Z,89.75
2023-03-06T05:18:10.629Z,89.75
2023-03-06T05:19:01.417Z,89.75
2023-03-06T05:19:52.205Z,89.64
2023-03-06T05:20:42.990Z,89.54
2023-03-06T05:21:33.787Z,89.54
2023-03-06T05:22:24.575Z,89.54
2023-03-06T05:23:15.366Z,89.43
2023-03-06T05:24:06.154Z,89.43
2023-03-06T05:24:57.307Z,89.43
2023-03-06T05:25:47.954Z,89.43
2023-03-06T05:26:38.723Z,89.32
2023-03-06T05:27:29.493Z,89.32
2023-03-06T05:28:20.263Z,89.22
2023-03-06T05:29:11.221Z,89.12
2023-03-06T05:30:02.103Z,89.01
2023-03-06T05:30:52.987Z,88.91
2023-03-06T05:31:43.946Z,88.81
2023-03-06T05:32:35.796Z,88.81
2023-03-06T05:33:26.024Z,88.91
2023-03-06T05:34:16.818Z,88.91
2023-03-06T05:35:07.888Z,88.91
2023-03-06T05:35:58.770Z,88.91
2023-03-06T05:36:49.816Z,88.81
2023-03-06T05:37:40.696Z,88.81
2023-03-06T05:38:31.523Z,88.81
2023-03-06T05:39:22.133Z,88.70
2023-03-06T05:40:13.034Z,88.70
2023-03-06T05:41:03.896Z,88.60
2023-03-06T05:41:54.777Z,88.60
2023-03-06T05:42:45.664Z,88.39
2023-03-06T05:43:36.514Z,88.29
2023-03-06T05:44:27.390Z,88.18
2023-03-06T05:45:18.997Z,88.08
2023-03-06T05:46:09.293Z,87.97
2023-03-06T05:47:00.152Z,87.97
2023-03-06T05:47:51.015Z,87.87
2023-03-06T05:48:41.921Z,87.87
2023-03-06T05:49:32.814Z,87.76
2023-03-06T05:50:23.695Z,87.76
2023-03-06T05:51:14.570Z,87.76
2023-03-06T05:52:05.456Z,87.66
2023-03-06T05:52:56.340Z,87.66
2023-03-06T05:53:47.231Z,87.55
2023-03-06T05:54:38.118Z,87.55
2023-03-06T05:55:29.044Z,87.45
2023-03-06T05:56:19.896Z,87.55
2023-03-06T05:57:10.787Z,87.55
2023-03-06T05:58:01.660Z,87.45
2023-03-06T05:58:52.547Z,87.35
2023-03-06T05:59:43.432Z,87.24
2023-03-06T06:00:34.333Z,87.24
2023-03-06T06:01:25.222Z,87.14
2023-03-06T06:02:16.175Z,87.04
2023-03-06T06:03:07.115Z,87.04
2023-03-06T06:03:57.931Z,87.04
2023-03-06T06:04:48.814Z,87.04
2023-03-06T06:05:39.727Z,86.93
2023-03-06T06:06:30.601Z,86.93
2023-03-06T06:07:21.474Z,86.83
2023-03-06T06:08:12.358Z,86.83
2023-03-06T06:09:03.253Z,86.83
2023-03-06T06:09:54.145Z,86.83
2023-03-06T06:10:45.054Z,86.83
2023-03-06T06:11:35.923Z,86.83
2023-03-06T06:12:26.829Z,86.83
2023-03-06T06:13:17.728Z,86.83
2023-03-06T06:14:08.617Z,86.72
2023-03-06T06:14:59.498Z,86.61
2023-03-06T06:15:50.441Z,86.61
2023-03-06T06:16:41.304Z,86.61
2023-03-06T06:17:32.251Z,86.51
2023-03-06T06:18:23.145Z,86.51
2023-03-06T06:19:14.063Z,86.51
2023-03-06T06:20:04.972Z,86.51
2023-03-06T06:20:56.107Z,86.51
2023-03-06T06:21:46.965Z,86.51
2023-03-06T06:22:37.966Z,86.61
2023-03-06T06:23:28.810Z,86.61
2023-03-06T06:24:19.708Z,86.61
2023-03-06T06:25:10.667Z,86.51
2023-03-06T06:26:01.598Z,86.51
2023-03-06T06:26:52.483Z,86.51
2023-03-06T06:27:43.376Z,86.51
2023-03-06T06:28:34.277Z,86.51
2023-03-06T06:29:25.196Z,86.51
2023-03-06T06:30:16.127Z,86.41
2023-03-06T06:31:07.112Z,86.41
2023-03-06T06:31:57.976Z,86.41
2023-03-06T06:32:48.883Z,86.30
2023-03-06T06:33:39.793Z,86.30
2023-03-06T06:34:30.701Z,86.30
2023-03-06T06:35:21.638Z,86.30
2023-03-06T06:36:12.546Z,86.41
2023-03-06T06:37:03.485Z,86.30
2023-03-06T06:37:54.403Z,86.30
2023-03-06T06:38:45.332Z,86.20
2023-03-06T06:39:36.251Z,86.30
2023-03-06T06:40:27.146Z,86.30
2023-03-06T06:41:52.881Z,86.30
2023-03-06T06:43:00.686Z,86.30
2023-03-06T06:43:50.397Z,86.30
2023-03-06T06:44:41.306Z,86.30
2023-03-06T06:45:32.238Z,86.30
2023-03-06T06:47:02.704Z,86.30
2023-03-06T06:47:24.648Z,86.30
2023-03-06T06:48:05.782Z,86.41
2023-03-06T06:48:55.470Z,86.41
2023-03-06T06:49:46.367Z,86.41
2023-03-06T06:50:37.295Z,86.41
2023-03-06T06:51:28.260Z,86.51
2023-03-06T06:52:19.125Z,86.51
2023-03-06T06:53:10.045Z,86.41
2023-03-06T06:54:00.965Z,86.41
2023-03-06T06:54:51.902Z,86.41
2023-03-06T06:55:42.799Z,86.41
2023-03-06T06:56:33.728Z,86.41
2023-03-06T06:57:24.630Z,86.41
2023-03-06T06:58:15.539Z,86.41
2023-03-06T06:59:15.981Z,86.41
2023-03-06T06:59:58.386Z,86.41
2023-03-06T07:00:48.076Z,86.51
2023-03-06T07:01:39.004Z,86.51
2023-03-06T07:02:29.912Z,86.51
2023-03-06T07:03:20.827Z,86.51
2023-03-06T07:04:11.834Z,86.51
2023-03-06T07:05:04.927Z,86.51
2023-03-06T07:05:53.618Z,86.51
2023-03-06T07:06:44.533Z,86.51
2023-03-06T07:07:35.448Z,86.51
2023-03-06T07:08:26.373Z,86.61
2023-03-06T07:09:17.303Z,86.61
2023-03-06T07:10:08.226Z,86.72
2023-03-06T07:10:59.148Z,86.72
2023-03-06T07:11:50.128Z,86.72
2023-03-06T07:12:41.015Z,86.83
2023-03-06T07:13:31.971Z,86.83
2023-03-06T07:14:22.880Z,86.79
2023-03-06T07:15:13.788Z,86.79
2023-03-06T07:16:04.756Z,86.79
2023-03-06T07:16:55.641Z,86.79
2023-03-06T07:17:48.929Z,86.68
2023-03-06T07:18:37.142Z,86.79
2023-03-06T07:19:28.073Z,86.79
2023-03-06T07:20:18.976Z,86.79
2023-03-06T07:21:09.910Z,86.79
2023-03-06T07:22:00.840Z,86.83
2023-03-06T07:22:52.110Z,86.83
2023-03-06T07:23:42.374Z,86.93
2023-03-06T07:24:33.290Z,86.93
2023-03-06T07:25:24.207Z,87.04
2023-03-06T07:26:15.155Z,87.04
2023-03-06T07:27:06.109Z,87.04
2023-03-06T07:27:57.033Z,87.14
2023-03-06T07:28:52.676Z,87.14
2023-03-06T07:29:39.824Z,87.24
2023-03-06T07:30:29.529Z,87.24
2023-03-06T07:31:20.476Z,87.35
2023-03-06T07:32:11.422Z,87.45
2023-03-06T07:33:02.326Z,87.45
2023-03-06T07:33:53.216Z,87.45
2023-03-06T07:34:44.109Z,87.45
2023-03-06T07:35:35.051Z,87.55
2023-03-06T07:36:25.944Z,87.66
2023-03-06T07:37:16.870Z,87.76
2023-03-06T07:38:07.785Z,87.76
2023-03-06T07:38:58.693Z,87.87
2023-03-06T07:39:49.612Z,87.97
2023-03-06T07:40:40.534Z,87.97
2023-03-06T07:41:31.454Z,87.97
2023-03-06T07:42:22.368Z,88.04
2023-03-06T07:43:19.509Z,88.04
2023-03-06T07:44:05.179Z,87.93
2023-03-06T07:44:54.906Z,87.93
2023-03-06T07:45:45.804Z,87.93
2023-03-06T07:46:36.767Z,87.83
2023-03-06T07:47:27.663Z,87.83
2023-03-06T07:48:18.592Z,87.83
2023-03-06T07:49:09.494Z,87.83
2023-03-06T07:50:00.416Z,87.93
2023-03-06T07:50:51.326Z,88.04
2023-03-06T07:51:42.253Z,88.14
2023-03-06T07:52:33.161Z,88.14
2023-03-06T07:53:24.098Z,88.14
2023-03-06T07:54:15.001Z,88.14
2023-03-06T07:55:05.923Z,87.93
2023-03-06T07:55:56.846Z,87.83
2023-03-06T07:56:47.795Z,87.68
2023-03-06T07:57:38.748Z,87.68
2023-03-06T07:58:29.661Z,87.68
2023-03-06T07:59:20.584Z,87.68
2023-03-06T08:00:11.565Z,87.58
2023-03-06T08:01:02.444Z,87.48
2023-03-06T08:01:53.375Z,87.43
2023-03-06T08:02:44.403Z,87.37
2023-03-06T08:03:35.341Z,87.48
2023-03-06T08:04:27.803Z,87.58
2023-03-06T08:05:17.338Z,87.58
2023-03-06T08:06:08.260Z,87.48
2023-03-06T08:06:59.171Z,87.48
2023-03-06T08:07:50.081Z,87.48
2023-03-06T08:08:41.011Z,87.48
2023-03-06T08:09:31.909Z,87.48
2023-03-06T08:10:22.847Z,87.37
2023-03-06T08:11:13.749Z,87.27
2023-03-06T08:12:04.675Z,87.23
2023-03-06T08:12:55.598Z,87.23
2023-03-06T08:13:46.496Z,87.23
2023-03-06T08:14:37.453Z,87.33
2023-03-06T08:15:28.344Z,87.37
2023-03-06T08:16:19.277Z,87.48
2023-03-06T08:17:10.169Z,87.54
2023-03-06T08:18:01.091Z,87.65
2023-03-06T08:18:52.028Z,87.65
2023-03-06T08:19:42.933Z,87.54
2023-03-06T08:20:33.849Z,87.43
2023-03-06T08:21:24.752Z,87.43
2023-03-06T08:22:15.686Z,87.43
2023-03-06T08:23:06.605Z,87.43
2023-03-06T08:23:57.523Z,87.43
2023-03-06T08:24:48.463Z,87.43
2023-03-06T08:25:39.381Z,87.43
2023-03-06T08:26:30.311Z,87.40
2023-03-06T08:27:21.252Z,87.29
2023-03-06T08:28:12.186Z,87.19
2023-03-06T08:29:03.106Z,87.19
2023-03-06T08:29:54.011Z,87.19
2023-03-06T08:30:44.935Z,87.29
2023-03-06T08:31:35.952Z,87.08
2023-03-06T08:32:26.961Z,86.77
2023-03-06T08:33:17.827Z,86.67
2023-03-06T08:34:08.750Z,86.67
2023-03-06T08:34:59.673Z,86.67
2023-03-06T08:35:50.627Z,86.77
2023-03-06T08:36:41.512Z,86.77
2023-03-06T08:37:32.480Z,86.88
2023-03-06T08:38:23.352Z,86.88
2023-03-06T08:39:14.289Z,86.88
2023-03-06T08:40:05.183Z,86.77
2023-03-06T08:40:56.096Z,86.81
2023-03-06T08:41:47.020Z,86.81
2023-03-06T08:42:37.952Z,86.91
2023-03-06T08:43:28.891Z,86.81
2023-03-06T08:44:19.783Z,86.91
2023-03-06T08:45:10.694Z,86.91
2023-03-06T08:46:01.640Z,87.02
2023-03-06T08:46:52.527Z,87.02
2023-03-06T08:47:43.452Z,87.16
2023-03-06T08:48:34.379Z,87.16
2023-03-06T08:49:25.278Z,87.27
2023-03-06T08:50:16.191Z,87.27
2023-03-06T08:51:07.120Z,87.37
2023-03-06T08:51:58.049Z,87.37
2023-03-06T08:52:48.979Z,87.33
2023-03-06T08:53:43.418Z,87.40
2023-03-06T08:54:30.938Z,86.80
2023-03-06T08:55:21.867Z,85.65
2023-03-06T08:56:12.804Z,85.13
2023-03-06T08:57:03.736Z,84.82
2023-03-06T08:57:54.648Z,84.96
2023-03-06T08:58:45.609Z,85.17
2023-03-06T08:59:36.499Z,85.38
2023-03-06T09:00:27.474Z,85.59
2023-03-06T09:01:18.467Z,85.86
2023-03-06T09:02:09.378Z,85.34
2023-03-06T09:03:00.306Z,85.13
2023-03-06T09:03:51.251Z,85.16
2023-03-06T09:04:42.240Z,84.60
2023-03-06T09:05:33.147Z,84.25
2023-03-06T09:06:24.085Z,83.53
2023-03-06T09:07:15.069Z,82.86
2023-03-06T09:08:06.005Z,82.45
2023-03-06T09:08:56.955Z,82.41
2023-03-06T09:09:47.890Z,81.54
2023-03-06T09:10:38.856Z,81.06
2023-03-06T09:11:29.778Z,80.96
2023-03-06T09:12:20.706Z,80.99
2023-03-06T09:13:11.648Z,81.20
2023-03-06T09:14:02.603Z,81.41
2023-03-06T09:14:53.528Z,81.56
2023-03-06T09:15:44.449Z,81.66
2023-03-06T09:16:35.452Z,81.87
2023-03-06T09:17:26.374Z,82.21
2023-03-06T09:18:17.313Z,82.39
2023-03-06T09:19:08.299Z,82.03
2023-03-06T09:19:59.208Z,81.82
2023-03-06T09:20:50.125Z,81.62
2023-03-06T09:21:41.068Z,81.62
2023-03-06T09:22:32.004Z,81.51
2023-03-06T09:23:22.964Z,81.51
2023-03-06T09:24:13.884Z,81.35
2023-03-06T09:25:04.817Z,81.35
2023-03-06T09:25:55.782Z,81.75
2023-03-06T09:26:48.321Z,80.08
2023-03-06T09:27:37.836Z,78.29
2023-03-06T09:28:28.783Z,77.18
2023-03-06T09:29:19.780Z,72.99
2023-03-06T09:30:10.697Z,69.77
2023-03-06T09:31:01.729Z,68.54
2023-03-06T09:31:52.658Z,67.95
2023-03-06T09:32:43.657Z,68.66
2023-03-06T09:33:34.552Z,69.62
2023-03-06T09:34:25.486Z,70.04
2023-03-06T09:35:16.426Z,70.31
2023-03-06T09:36:07.380Z,70.86
2023-03-06T09:36:58.325Z,71.75
2023-03-06T09:37:49.254Z,72.61
2023-03-06T09:38:40.179Z,73.39
2023-03-06T09:39:31.098Z,74.05
2023-03-06T09:40:22.025Z,74.71
2023-03-06T09:41:12.939Z,75.36
2023-03-06T09:42:03.876Z,76.12
2023-03-06T09:42:54.806Z,76.74
2023-03-06T09:43:45.738Z,77.29
2023-03-06T09:44:36.683Z,77.61
2023-03-06T09:45:27.607Z,77.92
2023-03-06T09:46:18.617Z,78.12
2023-03-06T09:47:09.525Z,78.23
2023-03-06T09:48:00.470Z,78.44
2023-03-06T09:48:51.427Z,78.50
2023-03-06T09:49:42.380Z,78.16
2023-03-06T09:50:33.382Z,77.81
2023-03-06T09:51:24.320Z,77.50
2023-03-06T09:52:15.272Z,76.98
2023-03-06T09:53:06.192Z,77.12
2023-03-06T09:53:57.101Z,77.22
2023-03-06T09:54:48.049Z,77.36
2023-03-06T09:55:38.972Z,77.47
2023-03-06T09:56:29.909Z,77.78
2023-03-06T09:57:20.874Z,77.74
2023-03-06T09:58:11.810Z,77.43
2023-03-06T09:59:02.755Z,77.09
2023-03-06T09:59:53.718Z,76.39
2023-03-06T10:00:44.644Z,75.43
2023-03-06T10:01:35.591Z,74.46
2023-03-06T10:02:26.652Z,74.29
2023-03-06T10:03:17.895Z,74.33
2023-03-06T10:04:08.244Z,74.77
2023-03-06T10:04:59.279Z,74.98
2023-03-06T10:05:50.203Z,75.29
2023-03-06T10:06:41.149Z,75.01
2023-03-06T10:07:32.086Z,74.43
2023-03-06T10:08:23.054Z,74.40
2023-03-06T10:09:13.981Z,74.05
2023-03-06T10:10:04.919Z,73.50
2023-03-06T10:10:55.866Z,73.05
2023-03-06T10:11:46.807Z,72.30
2023-03-06T10:12:37.752Z,71.44
2023-03-06T10:13:28.687Z,71.20
2023-03-06T10:14:19.633Z,70.65
2023-03-06T10:15:10.618Z,69.35
2023-03-06T10:16:01.574Z,68.29
2023-03-06T10:16:52.480Z,67.23
2023-03-06T10:17:43.415Z,66.69
2023-03-06T10:18:34.353Z,66.17
2023-03-06T10:19:25.299Z,65.86
2023-03-06T10:20:16.258Z,66.17
2023-03-06T10:21:18.877Z,66.04
2023-03-06T10:21:59.174Z,66.04
2023-03-06T10:23:00.794Z,65.80
2023-03-06T10:23:40.814Z,65.60
2023-03-06T10:24:30.550Z,65.39
2023-03-06T10:25:21.474Z,65.32
2023-03-06T10:26:12.462Z,65.42
2023-03-06T10:27:03.374Z,65.66
2023-03-06T10:27:54.294Z,65.86
2023-03-06T10:28:45.237Z,65.97
2023-03-06T10:29:36.181Z,65.56
2023-03-06T10:30:27.142Z,65.59
2023-03-06T10:31:18.092Z,66.00
2023-03-06T10:32:09.032Z,66.61
2023-03-06T10:33:00.008Z,66.82
2023-03-06T10:33:50.918Z,67.03
2023-03-06T10:34:41.847Z,66.93
2023-03-06T10:35:32.827Z,66.72
2023-03-06T10:36:23.728Z,66.75
2023-03-06T10:37:14.688Z,66.64
2023-03-06T10:38:05.625Z,66.88
2023-03-06T10:38:56.566Z,67.40
2023-03-06T10:39:47.513Z,67.94
2023-03-06T10:40:38.453Z,68.46
2023-03-06T10:41:29.399Z,68.87
2023-03-06T10:42:20.336Z,69.07
2023-03-06T10:43:12.329Z,68.87
2023-03-06T10:44:02.148Z,68.87
2023-03-06T10:44:53.100Z,68.87
2023-03-06T10:45:49.287Z,69.07
2023-03-06T10:46:36.083Z,69.25
2023-03-06T10:47:25.830Z,69.15
2023-03-06T10:48:16.764Z,68.94
2023-03-06T10:49:07.705Z,68.84
2023-03-06T10:49:58.653Z,68.74
2023-03-06T10:50:49.597Z,68.60
2023-03-06T10:51:40.539Z,68.46
2023-03-06T10:52:31.476Z,68.37
2023-03-06T10:53:22.531Z,68.43
2023-03-06T10:54:13.456Z,68.19
2023-03-06T10:55:04.402Z,67.68
2023-03-06T10:55:55.346Z,66.73
2023-03-06T10:56:46.308Z,65.70